createdAt,value
2024-01-11T00:02:51.139Z,-5.10
2024-01-11T00:17:51.644Z,-4.97
2024-01-11T00:32:52.130Z,-5.45
2024-01-11T00:47:52.539Z,-5.29
2024-01-11T01:02:53.087Z,-5.42
2024-01-11T01:17:53.748Z,-5.28
2024-01-11T01:32:54.477Z,-5.62
2024-01-11T01:47:55.085Z,-5.72
2024-01-11T02:02:55.631Z,-5.74
2024-01-11T02:17:55.920Z,-5.49
2024-01-11T02:32:56.707Z,-5.62
2024-01-11T02:47:57.266Z,-5.73
2024-01-11T03:02:57.637Z,-6.07
2024-01-11T03:17:58.274Z,-6.62
2024-01-11T03:32:59.117Z,-6.58
2024-01-11T03:47:59.726Z,-6.76
2024-01-11T04:03:00.214Z,-6.49
2024-01-11T04:18:00.705Z,-6.58
2024-01-11T04:33:01.240Z,-6.68
2024-01-11T04:48:01.686Z,-6.29
2024-01-11T05:03:02.067Z,-6.11
2024-01-11T05:18:03.021Z,-6.16
2024-01-11T05:33:03.490Z,-5.97
2024-01-11T05:48:04.169Z,-5.84
2024-01-11T06:03:04.531Z,-5.68
2024-01-11T06:18:05.468Z,-6.06
2024-01-11T06:33:05.906Z,-6.16
2024-01-11T06:48:06.263Z,-6.16
2024-01-11T07:03:06.873Z,-6.03
2024-01-11T07:18:07.644Z,-6.18
2024-01-11T07:33:09.436Z,-6.21
2024-01-11T07:48:08.804Z,-6.06
2024-01-11T08:03:09.317Z,-5.91
2024-01-11T08:18:10.100Z,-5.79
2024-01-11T08:33:10.901Z,-5.98
2024-01-11T08:48:11.640Z,-5.83
2024-01-11T09:03:12.216Z,-5.69
2024-01-11T09:18:12.583Z,-6.12
2024-01-11T09:33:12.945Z,-5.40
2024-01-11T09:48:13.828Z,-5.23
2024-01-11T10:03:14.237Z,-5.30
2024-01-11T10:18:15.127Z,-4.81
2024-01-11T10:33:15.396Z,-4.66
2024-01-11T10:48:16.318Z,-4.67
2024-01-11T11:03:16.649Z,-4.50
2024-01-11T11:18:17.272Z,-4.29
2024-01-11T11:33:18.066Z,-4.43
2024-01-11T11:48:18.833Z,-4.31
2024-01-11T12:03:19.470Z,-3.81
2024-01-11T12:18:20.087Z,-3.83
2024-01-11T12:33:20.589Z,-3.59
2024-01-11T12:48:20.874Z,-3.52
2024-01-11T13:03:21.555Z,-3.38
2024-01-11T13:18:22.206Z,-3.65
2024-01-11T13:33:22.677Z,-3.95
2024-01-11T13:48:23.195Z,-3.67
2024-01-11T14:03:23.911Z,-3.52
2024-01-11T14:18:24.613Z,-3.43
2024-01-11T14:33:25.369Z,-3.56
2024-01-11T14:48:26.090Z,-3.46
2024-01-11T15:03:26.642Z,-3.39
2024-01-11T15:18:27.189Z,-3.54
2024-01-11T15:33:27.801Z,-3.67
2024-01-11T15:48:28.633Z,-3.75
2024-01-11T16:03:28.747Z,-3.64
2024-01-11T16:18:29.228Z,-3.61
2024-01-11T16:33:29.916Z,-3.67
2024-01-11T16:48:30.507Z,-3.46
2024-01-11T17:03:30.794Z,-3.50
2024-01-11T17:18:31.602Z,-3.51
2024-01-11T17:33:32.338Z,-3.46
2024-01-11T17:48:32.819Z,-3.47
2024-01-11T18:03:33.713Z,-3.81
2024-01-11T18:18:34.123Z,-4.08
2024-01-11T18:33:34.510Z,-3.99
2024-01-11T18:48:34.968Z,-4.06
2024-01-11T19:03:35.537Z,-4.07
2024-01-11T19:18:35.938Z,-4.20
2024-01-11T19:33:36.507Z,-4.07
2024-01-11T19:48:37.096Z,-4.39
2024-01-11T20:03:37.592Z,-4.67
2024-01-11T20:18:39.109Z,-4.61
2024-01-11T20:33:38.749Z,-4.78
2024-01-11T20:48:39.597Z,-4.98
2024-01-11T21:03:40.181Z,-4.73
2024-01-11T21:18:40.723Z,-5.05
2024-01-11T21:33:41.153Z,-5.07
2024-01-11T21:48:41.634Z,-5.32
2024-01-11T22:03:42.093Z,-5.32
2024-01-11T22:18:42.704Z,-4.99
2024-01-11T22:33:42.846Z,-4.92
2024-01-11T22:48:43.594Z,-4.70
2024-01-11T23:03:44.035Z,-4.59
2024-01-11T23:18:44.785Z,-4.64
2024-01-11T23:33:45.015Z,-4.54
2024-01-11T23:48:45.662Z,-4.54
